createdAt,value
2023-01-21T06:00:50.163Z,43.85
2023-01-21T06:04:07.695Z,42.63
2023-01-21T06:06:35.001Z,44.22
2023-01-21T06:09:08.275Z,39.15
2023-01-21T06:11:43.935Z,44.65
2023-01-21T06:14:39.669Z,44.47
2023-01-21T06:17:11.770Z,43.05
2023-01-21T06:19:48.460Z,44.40
2023-01-21T06:22:25.726Z,42.15
2023-01-21T06:25:39.427Z,35.60
2023-01-21T06:28:40.141Z,42.95
2023-01-21T06:31:48.560Z,38.83
2023-01-21T06:35:04.065Z,37.93
2023-01-21T06:38:32.395Z,38.33
2023-01-21T06:41:15.512Z,36.50
2023-01-21T06:46:22.931Z,37.03
2023-01-21T06:48:49.874Z,43.55
2023-01-21T06:51:16.479Z,33.08
2023-01-21T06:53:43.748Z,33.50
2023-01-21T06:56:10.358Z,40.25
2023-01-21T06:58:37.532Z,38.58
2023-01-21T07:01:04.267Z,35.88
2023-01-21T07:03:30.983Z,45.17
2023-01-21T07:05:58.187Z,45.80
2023-01-21T07:08:24.799Z,37.65
2023-01-21T07:10:52.011Z,39.08
2023-01-21T07:13:18.584Z,53.83
2023-01-21T07:15:45.879Z,43.15
2023-01-21T07:18:12.512Z,39.08
2023-01-21T07:20:40.915Z,39.95
2023-01-21T07:23:07.567Z,48.22
2023-01-21T07:25:36.429Z,38.30
2023-01-21T07:28:03.541Z,37.25
2023-01-21T07:30:30.766Z,37.90
2023-01-21T07:32:57.353Z,39.00
2023-01-21T07:35:24.233Z,36.33
2023-01-21T07:37:50.793Z,38.45
2023-01-21T07:40:18.344Z,40.60
2023-01-21T07:42:51.056Z,44.17
2023-01-21T07:45:19.742Z,38.78
2023-01-21T07:47:46.473Z,36.92
2023-01-21T07:50:13.711Z,45.13
2023-01-21T07:52:40.426Z,40.08
2023-01-21T07:55:08.262Z,38.70
2023-01-21T07:57:34.833Z,38.78
2023-01-21T08:00:02.040Z,41.17
2023-01-21T08:02:38.404Z,39.95
2023-01-21T08:05:06.951Z,41.47
2023-01-21T08:07:33.680Z,42.90
2023-01-21T08:10:00.969Z,44.55
2023-01-21T08:12:27.556Z,43.88
2023-01-21T08:14:54.791Z,40.38
2023-01-21T08:17:21.379Z,43.03
2023-01-21T08:19:48.578Z,49.22
2023-01-21T08:22:15.149Z,45.75
2023-01-21T08:24:42.028Z,50.92
2023-01-21T08:27:09.661Z,44.30
2023-01-21T08:29:36.263Z,44.80
2023-01-21T08:32:03.556Z,44.92
2023-01-21T08:34:30.129Z,50.22
2023-01-21T08:36:57.140Z,44.97
2023-01-21T08:39:24.873Z,49.47
2023-01-21T08:41:51.988Z,48.50
2023-01-21T08:44:18.576Z,44.28
2023-01-21T08:46:45.808Z,50.30
2023-01-21T08:49:12.444Z,48.42
2023-01-21T08:51:39.981Z,60.83
2023-01-21T08:54:06.839Z,47.75
2023-01-21T08:56:34.348Z,57.08
2023-01-21T08:59:02.705Z,54.08
2023-01-21T09:01:29.737Z,55.60
2023-01-21T09:03:57.839Z,54.00
2023-01-21T09:06:29.923Z,56.45
2023-01-21T09:08:56.856Z,51.90
2023-01-21T09:11:24.373Z,53.22
2023-01-21T09:13:51.444Z,55.10
2023-01-21T09:16:22.781Z,55.03
2023-01-21T09:18:50.000Z,59.03
2023-01-21T09:21:16.693Z,67.72
2023-01-21T09:23:44.541Z,53.13
2023-01-21T09:26:18.408Z,68.63
2023-01-21T09:28:51.511Z,65.28
2023-01-21T09:31:21.484Z,62.70
2023-01-21T09:33:51.475Z,66.88
2023-01-21T09:38:48.050Z,65.07
2023-01-21T09:41:36.251Z,66.90
2023-01-21T09:44:12.606Z,65.63
2023-01-21T09:46:44.617Z,71.43
2023-01-21T09:49:18.966Z,74.63
2023-01-21T09:52:22.160Z,74.07
2023-01-21T09:54:49.459Z,76.45
2023-01-21T09:57:21.924Z,72.97
2023-01-21T09:59:54.933Z,68.85
2023-01-21T10:03:00.862Z,66.35
2023-01-21T10:06:01.000Z,71.28
2023-01-21T10:08:37.118Z,75.20
2023-01-21T10:11:23.796Z,68.30
2023-01-21T10:14:24.466Z,66.28
2023-01-21T10:17:06.246Z,75.03
2023-01-21T10:19:39.435Z,64.50
2023-01-21T10:22:12.641Z,69.93
2023-01-21T10:24:46.735Z,71.22
2023-01-21T10:27:18.214Z,70.65
2023-01-21T10:29:48.300Z,61.95
2023-01-21T10:32:20.938Z,66.38
2023-01-21T10:34:53.210Z,71.20
2023-01-21T10:37:48.153Z,68.47
2023-01-21T10:40:44.486Z,63.58
2023-01-21T10:43:39.416Z,60.75
2023-01-21T10:46:31.494Z,64.43
2023-01-21T10:49:03.220Z,57.53
2023-01-21T10:51:45.430Z,57.53
2023-01-21T10:54:38.744Z,52.95
2023-01-21T10:57:31.504Z,52.05
2023-01-21T11:00:02.563Z,53.17
2023-01-21T11:02:32.027Z,51.30
2023-01-21T11:05:05.032Z,50.00
2023-01-21T11:07:39.872Z,45.47
2023-01-21T11:10:07.965Z,45.05
2023-01-21T11:12:34.662Z,38.35
2023-01-21T11:15:10.831Z,42.40
2023-01-21T11:17:40.169Z,44.28
2023-01-21T11:22:54.596Z,42.53
2023-01-21T11:25:41.520Z,40.25
2023-01-21T11:28:30.396Z,38.75
2023-01-21T11:31:26.908Z,38.20
2023-01-21T11:33:55.923Z,31.85
2023-01-21T11:36:22.523Z,32.10
2023-01-21T11:39:02.333Z,31.15
2023-01-21T11:41:29.276Z,31.20
2023-01-21T11:44:10.392Z,25.80
2023-01-21T11:46:39.178Z,25.63
2023-01-21T11:49:09.365Z,25.42
2023-01-21T11:51:38.051Z,23.77
2023-01-21T11:54:12.175Z,23.80
2023-01-21T11:56:39.359Z,21.65
2023-01-21T11:59:24.237Z,18.70
2023-01-21T12:02:35.274Z,16.15
2023-01-21T12:05:09.518Z,21.50
2023-01-21T12:07:39.987Z,18.65
2023-01-21T12:10:13.061Z,20.38
2023-01-21T12:12:52.896Z,16.52
2023-01-21T12:15:29.069Z,16.75
2023-01-21T12:18:12.490Z,16.15
2023-01-21T12:20:58.590Z,15.07
2023-01-21T12:23:40.714Z,14.50
2023-01-21T12:26:41.325Z,17.88
2023-01-21T12:29:22.000Z,13.30
2023-01-21T12:32:01.495Z,17.40
2023-01-21T12:34:52.373Z,20.63
2023-01-21T12:37:38.256Z,15.50
2023-01-21T12:40:19.794Z,17.10
2023-01-21T12:42:53.298Z,15.02
2023-01-21T12:45:31.580Z,15.23
2023-01-21T12:48:10.247Z,15.38
2023-01-21T12:50:45.750Z,16.05
2023-01-21T12:53:15.349Z,15.77
2023-01-21T12:56:09.475Z,14.68
2023-01-21T12:58:41.158Z,15.95
2023-01-21T13:01:14.691Z,14.50
2023-01-21T13:04:04.133Z,12.88
2023-01-21T13:06:54.860Z,18.58
2023-01-21T13:09:34.033Z,15.10
2023-01-21T13:12:22.573Z,15.38
2023-01-21T13:15:02.089Z,17.17
2023-01-21T13:17:33.502Z,14.95
2023-01-21T13:20:00.826Z,16.02
2023-01-21T13:23:19.097Z,14.15
2023-01-21T13:26:01.371Z,16.23
2023-01-21T13:28:39.298Z,16.10
2023-01-21T13:31:20.162Z,11.68
2023-01-21T13:34:12.675Z,13.30
2023-01-21T13:36:47.144Z,13.23
2023-01-21T13:39:29.199Z,14.90
2023-01-21T13:42:05.116Z,16.30
2023-01-21T13:44:44.383Z,14.93
2023-01-21T13:47:29.712Z,12.82
2023-01-21T13:50:03.064Z,9.90
2023-01-21T13:52:35.180Z,11.60
2023-01-21T13:55:14.195Z,15.07
2023-01-21T13:58:01.024Z,16.60
2023-01-21T14:00:34.062Z,16.95
2023-01-21T14:03:08.528Z,15.50
2023-01-21T14:05:41.995Z,14.40
2023-01-21T14:08:24.638Z,13.43
2023-01-21T14:11:10.270Z,15.25
2023-01-21T14:13:36.777Z,15.20
2023-01-21T14:16:41.021Z,14.43
2023-01-21T14:19:25.948Z,18.40
2023-01-21T14:22:06.959Z,20.27
2023-01-21T14:24:52.993Z,19.48
2023-01-21T14:27:34.644Z,17.25
2023-01-21T14:30:15.946Z,15.73
2023-01-21T14:32:51.088Z,17.25
2023-01-21T14:35:34.312Z,17.00
2023-01-21T14:38:28.584Z,15.68
2023-01-21T14:41:10.459Z,17.35
2023-01-21T14:43:37.828Z,21.27
2023-01-21T14:46:28.335Z,24.27
2023-01-21T14:49:00.150Z,24.27
2023-01-21T14:51:30.712Z,20.08
2023-01-21T14:54:01.971Z,19.88
2023-01-21T14:56:35.661Z,23.10
2023-01-21T14:59:09.121Z,22.80
2023-01-21T15:01:44.014Z,21.63
2023-01-21T15:04:27.920Z,19.80
2023-01-21T15:07:09.590Z,22.50
2023-01-21T15:09:44.028Z,21.88
2023-01-21T15:12:30.529Z,18.90
2023-01-21T15:15:00.502Z,20.55
2023-01-21T15:21:00.943Z,19.13
2023-01-21T15:23:28.263Z,24.30
2023-01-21T15:26:11.819Z,23.58
2023-01-21T15:28:51.932Z,20.52
2023-01-21T15:31:19.205Z,20.13
2023-01-21T15:33:57.526Z,23.15
2023-01-21T15:36:29.529Z,19.88
2023-01-21T15:39:02.011Z,21.70
2023-01-21T15:41:39.404Z,22.63
2023-01-21T15:44:26.493Z,21.00
2023-01-21T15:47:19.408Z,21.25
2023-01-21T15:50:14.091Z,20.17
2023-01-21T15:53:13.638Z,20.83
2023-01-21T15:56:06.686Z,23.58
2023-01-21T15:58:52.231Z,20.15
2023-01-21T16:01:34.185Z,27.33
2023-01-21T16:04:20.490Z,19.10
2023-01-21T16:07:07.861Z,22.60
2023-01-21T16:09:59.079Z,23.60
2023-01-21T16:12:37.065Z,22.83
2023-01-21T16:15:35.932Z,26.60
2023-01-21T16:18:23.284Z,28.77
2023-01-21T16:20:53.564Z,25.70
2023-01-21T16:23:22.889Z,27.08
2023-01-21T16:25:52.087Z,26.08
2023-01-21T16:28:20.610Z,29.83
2023-01-21T16:30:59.358Z,27.02
2023-01-21T16:33:26.216Z,27.60
2023-01-21T16:35:57.067Z,29.67
2023-01-21T16:38:29.215Z,27.88
2023-01-21T16:41:08.545Z,30.33
2023-01-21T16:43:36.583Z,32.20
2023-01-21T16:46:06.107Z,32.60
2023-01-21T16:48:34.117Z,34.13
2023-01-21T16:51:01.807Z,33.97
2023-01-21T16:53:28.380Z,36.63
2023-01-21T16:56:00.152Z,33.55
2023-01-21T16:58:32.565Z,32.75
2023-01-21T17:01:06.118Z,30.75
2023-01-21T17:03:33.416Z,33.50
2023-01-21T17:06:07.313Z,29.23
2023-01-21T17:08:34.952Z,29.80
2023-01-21T17:11:07.644Z,32.72
2023-01-21T17:13:37.503Z,28.73
2023-01-21T17:16:05.897Z,28.85
2023-01-21T17:18:39.125Z,27.98
2023-01-21T17:21:15.932Z,33.20
2023-01-21T17:23:55.288Z,31.48
2023-01-21T17:26:29.764Z,33.28
2023-01-21T17:29:08.227Z,29.13
2023-01-21T17:31:38.744Z,38.10
2023-01-21T17:34:27.409Z,34.53
2023-01-21T17:36:55.322Z,32.00
2023-01-21T17:39:58.890Z,35.78
2023-01-21T17:42:30.395Z,37.10
2023-01-21T17:45:04.755Z,37.42
2023-01-21T17:47:35.236Z,36.22
2023-01-21T17:50:12.556Z,41.97
2023-01-21T17:52:39.662Z,34.38
2023-01-21T17:55:28.320Z,42.47
2023-01-21T17:57:55.134Z,39.63
2023-01-21T18:00:30.641Z,36.13
2023-01-21T18:02:58.209Z,40.58
2023-01-21T18:05:25.713Z,43.33
2023-01-21T18:07:52.346Z,39.45
2023-01-21T18:10:24.649Z,38.97
2023-01-21T18:12:51.675Z,44.10
2023-01-21T18:15:20.861Z,41.88
2023-01-21T18:17:51.387Z,40.15
2023-01-21T18:20:21.335Z,41.72
2023-01-21T18:25:16.891Z,43.95
2023-01-21T18:27:45.866Z,46.03
2023-01-21T18:30:17.886Z,43.10
2023-01-21T18:32:45.523Z,42.65
2023-01-21T18:35:15.767Z,46.90
2023-01-21T18:37:42.501Z,44.63
2023-01-21T18:40:16.046Z,43.10
2023-01-21T18:42:42.611Z,42.30
2023-01-21T18:45:21.792Z,41.63
2023-01-21T18:47:49.867Z,38.78
2023-01-21T18:50:28.618Z,40.55
2023-01-21T18:52:55.825Z,42.05
2023-01-21T18:55:27.923Z,39.03
2023-01-21T18:57:56.845Z,37.33
2023-01-21T19:00:32.439Z,39.63
2023-01-21T19:03:01.015Z,36.58
2023-01-21T19:05:34.228Z,39.70
2023-01-21T19:08:01.805Z,38.63
2023-01-21T19:10:29.068Z,40.05
2023-01-21T19:12:55.623Z,35.15
2023-01-21T19:15:25.225Z,35.38
2023-01-21T19:17:52.385Z,36.90
2023-01-21T19:20:22.257Z,33.95
2023-01-21T19:22:49.908Z,32.85
2023-01-21T19:25:18.869Z,36.95
2023-01-21T19:27:51.807Z,30.02
2023-01-21T19:30:26.031Z,40.22
2023-01-21T19:32:54.034Z,38.75
2023-01-21T19:35:28.246Z,37.80
2023-01-21T19:37:55.350Z,36.17
2023-01-21T19:40:24.888Z,41.15
2023-01-21T19:42:51.776Z,38.95
2023-01-21T19:45:20.096Z,37.67
2023-01-21T19:47:51.506Z,40.50
2023-01-21T19:50:21.851Z,34.78
2023-01-21T19:52:50.298Z,39.72
2023-01-21T19:55:25.942Z,42.83
2023-01-21T19:58:04.385Z,35.08
2023-01-21T20:00:34.500Z,34.77
2023-01-21T20:03:01.318Z,39.50
2023-01-21T20:05:33.906Z,36.58
2023-01-21T20:08:01.716Z,34.47
2023-01-21T20:10:30.338Z,37.47
2023-01-21T20:12:57.199Z,36.10
2023-01-21T20:15:30.437Z,40.63
2023-01-21T20:18:00.062Z,33.17
2023-01-21T20:20:30.462Z,35.67
2023-01-21T20:22:57.592Z,37.22
2023-01-21T20:25:31.942Z,36.00
2023-01-21T20:28:00.410Z,38.63
2023-01-21T20:30:32.521Z,36.97
2023-01-21T20:33:01.425Z,36.00
2023-01-21T20:35:28.669Z,37.17
2023-01-21T20:37:56.689Z,36.03
2023-01-21T20:40:29.320Z,33.60
2023-01-21T20:42:57.325Z,34.75
2023-01-21T20:45:30.870Z,36.03
2023-01-21T20:47:59.800Z,43.72
2023-01-21T20:50:35.560Z,35.00
2023-01-21T20:53:03.420Z,40.85
2023-01-21T20:55:31.394Z,40.05
2023-01-21T20:57:58.146Z,39.40
2023-01-21T21:00:27.710Z,40.83
2023-01-21T21:02:57.646Z,48.75
2023-01-21T21:05:27.561Z,36.75
2023-01-21T21:07:54.798Z,38.67
2023-01-21T21:10:27.360Z,38.88
2023-01-21T21:12:55.417Z,37.85
2023-01-21T21:15:22.986Z,43.83
2023-01-21T21:17:49.695Z,39.85
2023-01-21T21:20:24.084Z,41.20
2023-01-21T21:22:50.862Z,36.13
2023-01-21T21:25:20.509Z,34.63
2023-01-21T21:27:47.434Z,40.97
